createdAt,value
2018-06-18T00:01:09.671Z,99.00
2018-06-18T00:03:38.996Z,98.20
2018-06-18T00:06:08.222Z,94.90
2018-06-18T00:08:37.295Z,98.30
2018-06-18T00:11:06.362Z,99.90
2018-06-18T00:13:35.427Z,96.10
2018-06-18T00:16:04.532Z,99.90
2018-06-18T00:18:33.850Z,99.00
2018-06-18T00:21:03.019Z,96.40
2018-06-18T00:23:32.675Z,96.80
2018-06-18T00:26:01.956Z,95.90
2018-06-18T00:28:31.322Z,95.10
2018-06-18T00:31:00.367Z,93.40
2018-06-18T00:33:29.816Z,94.20
2018-06-18T00:35:59.376Z,97.20
2018-06-18T00:38:28.927Z,95.10
2018-06-18T00:40:58.500Z,94.80
2018-06-18T00:43:28.759Z,92.40
2018-06-18T00:45:57.890Z,93.90
2018-06-18T00:48:27.443Z,91.80
2018-06-18T00:50:56.672Z,96.60
2018-06-18T00:53:25.843Z,93.80
2018-06-18T00:56:11.035Z,96.00
2018-06-18T00:58:40.606Z,92.20
2018-06-18T01:01:10.153Z,96.20
2018-06-18T01:03:39.395Z,95.80
2018-06-18T01:08:43.097Z,93.80
2018-06-18T01:11:12.179Z,97.10
2018-06-18T01:13:41.210Z,93.40
2018-06-18T01:16:10.288Z,93.90
2018-06-18T01:18:39.560Z,97.40
2018-06-18T01:21:08.596Z,95.40
2018-06-18T01:23:49.012Z,94.30
2018-06-18T01:26:17.999Z,93.70
2018-06-18T01:28:47.017Z,95.10
2018-06-18T01:31:15.998Z,96.00
2018-06-18T01:33:45.016Z,91.60
2018-06-18T01:36:14.039Z,92.10
2018-06-18T01:38:43.001Z,95.20
2018-06-18T01:41:12.040Z,95.10
2018-06-18T01:43:41.107Z,93.60
2018-06-18T01:46:10.146Z,97.00
2018-06-18T01:48:39.129Z,94.70
2018-06-18T01:51:08.282Z,96.90
2018-06-18T01:53:37.434Z,97.70
2018-06-18T01:56:06.622Z,97.30
2018-06-18T01:58:35.791Z,95.40
2018-06-18T02:01:04.940Z,97.50
2018-06-18T02:03:34.116Z,97.30
2018-06-18T02:06:03.521Z,96.60
2018-06-18T02:08:32.683Z,97.20
2018-06-18T02:11:01.863Z,99.90
2018-06-18T02:13:31.281Z,98.80
2018-06-18T02:16:00.492Z,98.80
2018-06-18T02:18:29.682Z,99.30
2018-06-18T02:20:58.819Z,96.00
2018-06-18T02:23:28.057Z,98.10
2018-06-18T02:25:57.181Z,99.90
2018-06-18T02:28:31.262Z,98.80
2018-06-18T02:31:05.483Z,98.70
2018-06-18T02:33:39.903Z,99.50
2018-06-18T02:36:14.055Z,97.90
2018-06-18T02:38:48.419Z,99.90
2018-06-18T02:41:17.575Z,97.50
2018-06-18T02:43:46.643Z,99.40
2018-06-18T02:46:15.653Z,97.70
2018-06-18T02:48:44.769Z,97.70
2018-06-18T02:51:13.743Z,99.30
2018-06-18T02:53:42.879Z,98.40
2018-06-18T02:56:11.771Z,99.00
2018-06-18T02:58:40.796Z,96.30
2018-06-18T03:01:09.779Z,98.60
2018-06-18T03:03:38.830Z,99.80
2018-06-18T03:06:08.139Z,98.60
2018-06-18T03:08:37.755Z,98.40
2018-06-18T03:11:07.536Z,96.50
2018-06-18T03:13:37.011Z,97.70
2018-06-18T03:16:06.309Z,98.90
2018-06-18T03:18:40.914Z,97.70
2018-06-18T03:21:15.308Z,99.90
2018-06-18T03:23:49.575Z,99.90
2018-06-18T03:26:23.835Z,99.90
2018-06-18T03:28:58.620Z,99.90
2018-06-18T03:31:28.684Z,99.90
2018-06-18T03:33:58.946Z,99.90
2018-06-18T03:36:29.631Z,99.90
2018-06-18T03:39:00.295Z,99.40
2018-06-18T03:41:30.092Z,98.80
2018-06-18T03:44:04.371Z,99.90
2018-06-18T03:46:33.404Z,99.90
2018-06-18T03:49:02.759Z,98.70
2018-06-18T03:51:32.021Z,97.30
2018-06-18T03:54:01.597Z,99.60
2018-06-18T03:56:32.366Z,99.20
2018-06-18T03:59:04.344Z,99.90
2018-06-18T04:01:51.387Z,99.90
2018-06-18T04:04:25.702Z,99.90
2018-06-18T04:06:59.998Z,98.10
2018-06-18T04:12:07.399Z,96.70
2018-06-18T04:14:36.927Z,97.70
2018-06-18T04:17:06.034Z,99.90
2018-06-18T04:19:35.438Z,99.80
2018-06-18T04:22:04.579Z,98.00
2018-06-18T04:24:33.641Z,99.90
2018-06-18T04:27:02.925Z,99.90
2018-06-18T04:29:32.172Z,99.70
2018-06-18T04:32:01.743Z,98.30
2018-06-18T04:34:35.763Z,99.90
2018-06-18T04:37:04.764Z,99.90
2018-06-18T04:39:33.914Z,99.90
2018-06-18T04:42:08.362Z,99.90
2018-06-18T04:44:42.730Z,99.90
2018-06-18T04:47:16.966Z,99.80
2018-06-18T04:49:51.247Z,97.60
2018-06-18T04:52:20.294Z,99.70
2018-06-18T04:54:49.342Z,99.70
2018-06-18T04:57:18.406Z,99.90
2018-06-18T04:59:52.415Z,99.90
2018-06-18T05:02:21.453Z,99.20
2018-06-18T05:04:50.454Z,99.10
2018-06-18T05:07:20.127Z,99.90
2018-06-18T05:10:22.678Z,99.90
2018-06-18T05:12:51.990Z,99.90
2018-06-18T05:15:23.222Z,99.90
2018-06-18T05:17:52.227Z,99.90
2018-06-18T05:20:21.203Z,99.90
2018-06-18T05:22:50.235Z,99.90
2018-06-18T05:25:19.492Z,99.70
2018-06-18T05:27:48.489Z,99.70
2018-06-18T05:30:29.415Z,99.90
2018-06-18T05:32:59.034Z,99.90
2018-06-18T05:35:28.916Z,99.90
2018-06-18T05:38:02.090Z,99.90
2018-06-18T05:40:31.258Z,99.90
2018-06-18T05:43:00.454Z,99.90
2018-06-18T05:45:29.987Z,98.90
2018-06-18T05:47:59.421Z,99.90
2018-06-18T05:50:29.112Z,99.90
2018-06-18T05:52:58.571Z,99.90
2018-06-18T05:55:28.026Z,99.90
2018-06-18T05:57:57.371Z,99.90
2018-06-18T06:00:26.910Z,99.90
2018-06-18T06:02:56.397Z,99.90
2018-06-18T06:05:26.251Z,98.60
2018-06-18T06:07:55.556Z,94.60
2018-06-18T06:10:25.564Z,91.40
2018-06-18T06:12:54.990Z,95.10
2018-06-18T06:15:24.278Z,99.90
2018-06-18T06:17:53.433Z,99.20
2018-06-18T06:20:22.381Z,99.10
2018-06-18T06:25:20.050Z,99.90
2018-06-18T06:27:48.992Z,99.00
2018-06-18T06:30:18.303Z,99.90
2018-06-18T06:32:47.291Z,99.90
2018-06-18T06:35:20.670Z,99.60
2018-06-18T06:37:49.814Z,98.80
2018-06-18T06:40:18.787Z,99.40
2018-06-18T06:42:47.937Z,99.90
2018-06-18T06:45:16.885Z,99.90
2018-06-18T06:47:45.974Z,99.90
2018-06-18T06:50:14.995Z,99.90
2018-06-18T06:52:44.162Z,99.90
2018-06-18T06:55:13.134Z,99.90
2018-06-18T06:57:42.282Z,99.90
2018-06-18T07:00:11.289Z,99.90
2018-06-18T07:02:40.390Z,99.90
2018-06-18T07:05:09.570Z,99.00
2018-06-18T07:07:38.703Z,97.40
2018-06-18T07:10:08.443Z,98.90
2018-06-18T07:12:37.726Z,99.90
2018-06-18T07:15:07.370Z,99.90
2018-06-18T07:17:37.308Z,98.60
2018-06-18T07:20:06.623Z,99.90
2018-06-18T07:22:35.724Z,98.90
2018-06-18T07:25:04.862Z,99.90
2018-06-18T07:27:34.203Z,99.60
2018-06-18T07:30:03.659Z,98.60
2018-06-18T07:32:33.166Z,99.00
2018-06-18T07:35:02.657Z,95.60
2018-06-18T07:37:32.000Z,98.00
2018-06-18T07:40:01.791Z,97.20
2018-06-18T07:42:30.855Z,95.20
2018-06-18T07:45:00.904Z,98.90
2018-06-18T07:47:30.323Z,99.60
2018-06-18T07:49:59.596Z,98.40
2018-06-18T07:52:28.852Z,98.30
2018-06-18T07:54:58.118Z,97.00
2018-06-18T07:57:28.030Z,97.10
2018-06-18T07:59:57.479Z,95.10
2018-06-18T08:02:27.068Z,91.10
2018-06-18T08:04:56.391Z,82.30
2018-06-18T08:07:25.728Z,69.30
2018-06-18T08:09:55.177Z,80.00
2018-06-18T08:12:24.181Z,91.00
2018-06-18T08:14:53.208Z,92.20
2018-06-18T08:17:22.201Z,93.20
2018-06-18T08:19:51.223Z,90.90
2018-06-18T08:22:20.154Z,96.40
2018-06-18T08:24:50.496Z,98.00
2018-06-18T08:27:19.821Z,95.50
2018-06-18T08:29:48.843Z,95.40
2018-06-18T08:32:18.011Z,95.10
2018-06-18T08:34:47.099Z,96.10
2018-06-18T08:37:16.087Z,92.50
2018-06-18T08:39:45.071Z,89.10
2018-06-18T08:42:14.051Z,91.60
2018-06-18T08:44:43.066Z,92.70
2018-06-18T08:47:12.102Z,94.60
2018-06-18T08:49:46.326Z,93.90
2018-06-18T08:52:20.647Z,94.60
2018-06-18T08:54:54.991Z,94.70
2018-06-18T08:57:29.443Z,94.90
2018-06-18T09:00:04.218Z,94.10
2018-06-18T09:02:34.014Z,95.20
2018-06-18T09:05:09.018Z,95.10
2018-06-18T09:07:43.234Z,95.60
2018-06-18T09:10:12.226Z,94.00
2018-06-18T09:12:41.538Z,96.60
2018-06-18T09:15:10.527Z,94.20
2018-06-18T09:17:39.530Z,95.20
2018-06-18T09:20:08.482Z,95.00
2018-06-18T09:22:37.510Z,94.70
2018-06-18T09:25:06.614Z,94.30
2018-06-18T09:30:11.579Z,93.20
2018-06-18T09:32:40.953Z,94.20
2018-06-18T09:35:10.131Z,94.10
2018-06-18T09:37:39.254Z,95.00
2018-06-18T09:40:08.302Z,93.30
2018-06-18T09:42:37.348Z,87.40
2018-06-18T09:45:06.307Z,87.70
2018-06-18T09:47:35.346Z,83.00
2018-06-18T09:50:09.668Z,89.30
2018-06-18T09:52:43.912Z,87.50
2018-06-18T09:55:18.227Z,90.80
2018-06-18T09:57:52.475Z,92.50
2018-06-18T10:00:37.918Z,91.80
2018-06-18T10:03:07.051Z,91.30
2018-06-18T10:05:36.151Z,93.30
2018-06-18T10:08:05.200Z,92.70
2018-06-18T10:10:34.858Z,93.90
2018-06-18T10:13:04.371Z,93.40
2018-06-18T10:15:33.899Z,95.80
2018-06-18T10:18:03.442Z,97.30
2018-06-18T10:20:32.626Z,98.50
2018-06-18T10:23:02.365Z,96.00
2018-06-18T10:25:31.360Z,93.80
2018-06-18T10:28:00.495Z,94.10
2018-06-18T10:30:29.666Z,95.70
2018-06-18T10:33:04.070Z,97.80
2018-06-18T10:36:39.055Z,95.60
2018-06-18T10:39:13.847Z,95.60
2018-06-18T10:41:48.179Z,93.10
2018-06-18T10:44:17.190Z,96.90
2018-06-18T10:46:46.168Z,94.80
2018-06-18T10:49:15.195Z,94.80
2018-06-18T10:51:44.112Z,96.10
2018-06-18T10:54:13.088Z,95.10
2018-06-18T10:56:42.361Z,94.00
2018-06-18T10:59:11.406Z,93.00
2018-06-18T11:04:13.154Z,94.90
2018-06-18T11:06:42.287Z,94.60
2018-06-18T11:09:11.879Z,93.60
2018-06-18T11:11:41.015Z,95.30
2018-06-18T11:14:10.058Z,93.80
2018-06-18T11:16:39.320Z,93.40
2018-06-18T11:19:13.452Z,93.10
2018-06-18T11:21:47.806Z,94.40
2018-06-18T11:24:22.305Z,93.20
2018-06-18T11:26:55.643Z,93.80
2018-06-18T11:29:25.041Z,92.00
2018-06-18T11:31:54.341Z,95.10
2018-06-18T11:34:24.018Z,95.50
2018-06-18T11:36:53.549Z,98.00
2018-06-18T11:39:22.898Z,96.20
2018-06-18T11:41:52.409Z,96.40
2018-06-18T11:44:21.435Z,95.90
2018-06-18T11:46:50.582Z,96.00
2018-06-18T11:49:19.547Z,96.30
2018-06-18T11:51:48.598Z,95.80
2018-06-18T11:54:18.646Z,95.20
2018-06-18T11:56:47.761Z,94.30
2018-06-18T11:59:21.995Z,94.20
2018-06-18T12:01:56.275Z,95.40
2018-06-18T12:04:30.556Z,94.90
2018-06-18T12:07:04.757Z,95.20
2018-06-18T12:09:35.104Z,97.50
2018-06-18T12:12:04.348Z,97.70
2018-06-18T12:14:33.769Z,95.90
2018-06-18T12:17:02.807Z,99.40
2018-06-18T12:19:32.287Z,97.80
2018-06-18T12:22:01.368Z,97.20
2018-06-18T12:24:30.415Z,97.30
2018-06-18T12:26:59.777Z,97.50
2018-06-18T12:29:28.732Z,98.00
2018-06-18T12:31:57.886Z,98.00
2018-06-18T12:34:27.235Z,95.20
2018-06-18T12:36:56.297Z,93.20
2018-06-18T12:39:25.385Z,94.40
2018-06-18T12:42:03.779Z,93.60
2018-06-18T12:44:38.975Z,93.60
2018-06-18T12:47:13.136Z,94.90
2018-06-18T12:49:47.341Z,94.80
2018-06-18T12:52:21.578Z,95.20
2018-06-18T12:54:56.099Z,95.40
2018-06-18T12:57:25.099Z,97.10
2018-06-18T12:59:54.079Z,97.00
2018-06-18T13:02:27.698Z,99.90
2018-06-18T13:04:58.958Z,99.90
2018-06-18T13:07:29.059Z,99.90
2018-06-18T13:09:59.115Z,99.90
2018-06-18T13:12:28.911Z,99.90
2018-06-18T13:14:58.595Z,99.90
2018-06-18T13:17:27.917Z,99.90
2018-06-18T13:19:57.385Z,99.90
2018-06-18T13:22:26.727Z,99.90
2018-06-18T13:24:56.593Z,99.90
2018-06-18T13:27:30.870Z,99.90
2018-06-18T13:30:00.328Z,99.90
2018-06-18T13:32:29.615Z,99.90
2018-06-18T13:34:59.146Z,99.90
2018-06-18T13:38:37.746Z,99.90
2018-06-18T13:41:12.315Z,99.90
2018-06-18T13:43:46.609Z,98.60
2018-06-18T13:46:20.743Z,96.80
2018-06-18T13:48:57.216Z,95.90
2018-06-18T13:51:27.378Z,98.90
2018-06-18T13:53:56.747Z,99.90
2018-06-18T13:56:25.688Z,99.90
2018-06-18T13:58:55.760Z,99.50
2018-06-18T14:01:24.967Z,96.50
2018-06-18T14:03:54.047Z,95.30
2018-06-18T14:06:23.022Z,94.80
2018-06-18T14:08:52.294Z,94.00
2018-06-18T14:11:21.659Z,95.10
2018-06-18T14:13:50.789Z,95.30
2018-06-18T14:16:19.699Z,95.00
2018-06-18T14:18:48.715Z,95.00
2018-06-18T14:21:17.829Z,96.00
2018-06-18T14:23:46.888Z,96.30
2018-06-18T14:26:15.944Z,96.00
2018-06-18T14:28:44.995Z,95.40
2018-06-18T14:31:19.667Z,97.90
2018-06-18T14:33:53.900Z,98.70
2018-06-18T14:36:28.309Z,99.30
2018-06-18T14:39:02.793Z,99.90
2018-06-18T14:41:32.203Z,97.20
2018-06-18T14:44:01.326Z,93.90
2018-06-18T14:46:31.671Z,94.20
2018-06-18T14:49:00.810Z,92.40
2018-06-18T14:51:30.398Z,97.30
2018-06-18T14:53:59.776Z,95.50
2018-06-18T14:56:32.514Z,99.50
2018-06-18T14:59:11.800Z,99.90
2018-06-18T15:01:41.063Z,99.90
2018-06-18T15:04:10.091Z,99.60
2018-06-18T15:06:39.131Z,99.90
2018-06-18T15:09:10.551Z,99.90
2018-06-18T15:11:39.787Z,99.90
2018-06-18T15:14:09.133Z,99.90
2018-06-18T15:16:38.170Z,99.90
2018-06-18T15:19:07.207Z,99.90
2018-06-18T15:21:39.065Z,99.90
2018-06-18T15:24:11.731Z,99.90
2018-06-18T15:26:40.716Z,99.90
2018-06-18T15:29:09.679Z,97.60
2018-06-18T15:31:38.822Z,99.90
2018-06-18T15:34:07.786Z,97.70
2018-06-18T15:36:36.843Z,97.20
2018-06-18T15:39:08.718Z,96.20
2018-06-18T15:41:37.844Z,95.90
2018-06-18T15:44:07.074Z,97.70
2018-06-18T15:46:35.991Z,99.20
2018-06-18T15:49:05.221Z,95.60
2018-06-18T15:51:34.390Z,94.20
2018-06-18T15:54:03.704Z,96.70
2018-06-18T15:56:32.957Z,96.70
2018-06-18T15:59:02.145Z,94.40
2018-06-18T16:01:31.287Z,93.70
2018-06-18T16:06:29.178Z,95.80
2018-06-18T16:08:58.437Z,97.50
2018-06-18T16:11:27.622Z,97.70
2018-06-18T16:13:56.727Z,94.60
2018-06-18T16:16:25.767Z,99.40
2018-06-18T16:18:55.279Z,97.20
2018-06-18T16:21:24.343Z,96.60
2018-06-18T16:23:53.358Z,96.90
2018-06-18T16:26:22.590Z,95.40
2018-06-18T16:28:51.659Z,96.70
2018-06-18T16:31:20.750Z,97.00
2018-06-18T16:33:49.861Z,97.20
2018-06-18T16:36:18.886Z,97.10
2018-06-18T16:38:47.963Z,99.40
2018-06-18T16:41:17.176Z,96.70
2018-06-18T16:43:46.203Z,94.20
2018-06-18T16:46:15.136Z,95.70
2018-06-18T16:48:44.087Z,97.30
2018-06-18T16:51:13.222Z,96.30
2018-06-18T16:53:42.352Z,99.20
2018-06-18T16:56:11.335Z,97.70
2018-06-18T16:58:40.419Z,95.30
2018-06-18T17:01:09.563Z,98.60
2018-06-18T17:03:38.555Z,97.30
2018-06-18T17:06:07.568Z,96.50
2018-06-18T17:08:36.875Z,94.90
2018-06-18T17:11:05.903Z,96.50
2018-06-18T17:13:35.755Z,99.00
2018-06-18T17:16:04.723Z,99.60
2018-06-18T17:18:33.686Z,99.50
2018-06-18T17:21:03.055Z,97.20
2018-06-18T17:23:32.027Z,95.10
2018-06-18T17:26:01.260Z,97.00
2018-06-18T17:28:30.325Z,96.50
2018-06-18T17:30:59.523Z,97.70
2018-06-18T17:33:28.683Z,96.20
2018-06-18T17:35:57.987Z,96.40
2018-06-18T17:40:56.609Z,94.50
2018-06-18T17:43:26.534Z,94.60
2018-06-18T17:45:55.600Z,95.70
2018-06-18T17:48:24.668Z,97.10
2018-06-18T17:50:53.743Z,94.60
2018-06-18T17:53:22.767Z,94.30
2018-06-18T17:55:51.960Z,93.00
2018-06-18T17:58:20.986Z,93.10
2018-06-18T18:00:50.059Z,95.30
2018-06-18T18:03:19.211Z,95.00
2018-06-18T18:05:48.447Z,92.40
2018-06-18T18:08:17.507Z,92.30
2018-06-18T18:10:46.498Z,92.90
2018-06-18T18:13:15.619Z,92.30
2018-06-18T18:15:44.507Z,92.20
2018-06-18T18:18:13.534Z,93.90
2018-06-18T18:20:42.531Z,96.40
2018-06-18T18:23:11.543Z,96.70
2018-06-18T18:25:40.497Z,97.70
2018-06-18T18:28:09.767Z,96.40
2018-06-18T18:30:38.955Z,96.50
2018-06-18T18:33:08.497Z,97.00
2018-06-18T18:35:37.760Z,98.00
2018-06-18T18:38:06.819Z,98.40
2018-06-18T18:40:36.624Z,98.00
2018-06-18T18:43:05.860Z,99.10
2018-06-18T18:45:34.982Z,98.20
2018-06-18T18:48:04.206Z,98.40
2018-06-18T18:50:33.643Z,96.90
2018-06-18T18:53:02.687Z,97.90
2018-06-18T18:55:44.107Z,97.80
2018-06-18T18:58:24.375Z,97.30
2018-06-18T19:00:53.582Z,94.90
2018-06-18T19:03:25.318Z,97.60
2018-06-18T19:05:55.474Z,97.00
2018-06-18T19:08:32.150Z,96.80
2018-06-18T19:11:03.190Z,97.00
2018-06-18T19:13:34.734Z,96.20
2018-06-18T19:16:03.915Z,96.50
2018-06-18T19:18:33.856Z,95.60
2018-06-18T19:21:07.863Z,94.50
2018-06-18T19:23:36.903Z,96.20
2018-06-18T19:26:06.051Z,95.50
2018-06-18T19:28:35.947Z,95.00
2018-06-18T19:31:10.795Z,95.40
2018-06-18T19:33:50.708Z,95.40
2018-06-18T19:36:19.701Z,95.50
2018-06-18T19:38:48.666Z,94.80
2018-06-18T19:41:17.956Z,95.60
2018-06-18T19:43:47.256Z,95.40
2018-06-18T19:46:17.402Z,94.90
2018-06-18T19:49:00.935Z,94.80
2018-06-18T19:51:30.383Z,95.50
2018-06-18T19:54:00.451Z,95.40
2018-06-18T19:56:30.022Z,95.10
2018-06-18T19:58:59.483Z,95.80
2018-06-18T20:01:29.263Z,96.20
2018-06-18T20:03:58.806Z,95.20
2018-06-18T20:06:28.406Z,95.50
2018-06-18T20:08:57.962Z,95.20
2018-06-18T20:11:27.492Z,94.80
2018-06-18T20:13:56.876Z,94.70
2018-06-18T20:16:26.247Z,95.00
2018-06-18T20:18:55.527Z,95.30
2018-06-18T20:21:24.730Z,95.20
2018-06-18T20:23:53.795Z,95.30
2018-06-18T20:26:22.827Z,95.30
2018-06-18T20:28:52.131Z,95.70
2018-06-18T20:31:21.138Z,96.20
2018-06-18T20:33:52.441Z,95.80
2018-06-18T20:36:22.649Z,96.00
2018-06-18T20:38:51.638Z,95.60
2018-06-18T20:41:20.706Z,96.10
2018-06-18T20:44:21.282Z,95.30
2018-06-18T20:46:50.305Z,96.00
2018-06-18T20:49:19.281Z,96.00
2018-06-18T20:51:48.319Z,96.20
2018-06-18T20:54:17.298Z,96.40
2018-06-18T20:56:46.326Z,97.00
2018-06-18T20:59:15.405Z,97.00
2018-06-18T21:01:44.547Z,97.60
2018-06-18T21:06:42.599Z,96.80
2018-06-18T21:09:12.218Z,96.90
2018-06-18T21:11:41.147Z,98.20
2018-06-18T21:14:11.010Z,98.00
2018-06-18T21:16:42.534Z,98.70
2018-06-18T21:19:11.707Z,96.60
2018-06-18T21:21:40.761Z,99.10
2018-06-18T21:24:09.955Z,99.90
2018-06-18T21:26:39.306Z,99.90
2018-06-18T21:29:08.985Z,99.90
2018-06-18T21:31:38.016Z,99.30
2018-06-18T21:34:07.059Z,99.40
2018-06-18T21:36:36.031Z,98.50
2018-06-18T21:39:06.868Z,99.90
2018-06-18T21:41:35.984Z,99.90
2018-06-18T21:44:05.846Z,99.90
2018-06-18T21:46:35.074Z,99.90
2018-06-18T21:49:04.405Z,99.90
2018-06-18T21:51:33.739Z,99.90
2018-06-18T21:54:03.188Z,99.90
2018-06-18T21:56:32.274Z,99.90
2018-06-18T21:59:01.517Z,99.90
2018-06-18T22:01:41.328Z,99.90
2018-06-18T22:04:10.759Z,99.90
2018-06-18T22:06:39.880Z,99.90
2018-06-18T22:09:12.024Z,99.90
2018-06-18T22:11:41.974Z,99.90
2018-06-18T22:14:11.430Z,99.90
2018-06-18T22:16:40.788Z,99.90
2018-06-18T22:19:10.009Z,99.90
2018-06-18T22:21:39.680Z,99.90
2018-06-18T22:24:08.966Z,99.90
2018-06-18T22:26:38.479Z,99.90
2018-06-18T22:29:07.964Z,99.90
2018-06-18T22:31:37.504Z,99.90
2018-06-18T22:34:06.818Z,99.90
2018-06-18T22:36:35.851Z,99.90
2018-06-18T22:39:06.696Z,99.90
2018-06-18T22:41:35.875Z,99.90
2018-06-18T22:44:04.890Z,99.90
2018-06-18T22:46:33.931Z,99.90
2018-06-18T22:49:03.079Z,99.90
2018-06-18T22:51:32.375Z,99.90
2018-06-18T22:54:01.433Z,99.90
2018-06-18T22:56:30.597Z,99.90
2018-06-18T22:58:59.905Z,99.90
2018-06-18T23:01:29.086Z,99.90
2018-06-18T23:03:58.306Z,99.90
2018-06-18T23:06:27.571Z,99.90
2018-06-18T23:08:57.063Z,99.90
2018-06-18T23:11:26.211Z,99.90
2018-06-18T23:13:55.511Z,99.90
2018-06-18T23:16:25.071Z,99.90
2018-06-18T23:18:54.403Z,99.90
2018-06-18T23:21:23.616Z,99.90
2018-06-18T23:23:52.828Z,99.90
2018-06-18T23:26:22.118Z,99.90
2018-06-18T23:28:54.737Z,99.90
2018-06-18T23:31:24.147Z,99.90
2018-06-18T23:33:53.561Z,99.90
2018-06-18T23:36:22.579Z,99.90
2018-06-18T23:38:51.623Z,99.90
2018-06-18T23:41:21.755Z,99.90
2018-06-18T23:43:51.224Z,99.90
2018-06-18T23:46:20.195Z,99.90
2018-06-18T23:48:49.174Z,99.90
2018-06-18T23:51:18.433Z,99.90
2018-06-18T23:53:47.398Z,99.90
2018-06-18T23:56:16.522Z,99.90
2018-06-18T23:58:45.711Z,99.90
